createdAt,value
2023-02-22T00:00:59.871Z,99816.09
2023-02-22T00:03:32.431Z,99836.38
2023-02-22T00:06:05.216Z,99841.63
2023-02-22T00:08:36.626Z,99840.84
2023-02-22T00:11:09.079Z,99836.19
2023-02-22T00:13:37.874Z,99842.50
2023-02-22T00:16:05.592Z,99837.50
2023-02-22T00:18:32.687Z,99850.94
2023-02-22T00:21:01.422Z,99860.81
2023-02-22T00:23:31.114Z,99871.22
2023-02-22T00:26:00.180Z,99912.41
2023-02-22T00:28:27.955Z,99911.72
2023-02-22T00:30:55.103Z,99934.41
2023-02-22T00:33:23.254Z,99931.94
2023-02-22T00:35:50.487Z,99919.47
2023-02-22T00:38:19.534Z,99930.38
2023-02-22T00:40:46.623Z,99915.28
2023-02-22T00:43:14.365Z,99909.88
2023-02-22T00:45:42.440Z,99911.63
2023-02-22T00:48:10.472Z,99908.28
2023-02-22T00:50:37.990Z,99901.25
2023-02-22T00:53:07.346Z,99893.13
2023-02-22T00:55:36.734Z,99902.03
2023-02-22T00:58:05.270Z,99920.56
2023-02-22T01:00:39.932Z,99935.63
2023-02-22T01:03:10.550Z,99927.34
2023-02-22T01:05:38.816Z,99920.97
2023-02-22T01:08:08.549Z,99910.66
2023-02-22T01:10:37.043Z,99907.13
2023-02-22T01:13:08.897Z,99903.47
2023-02-22T01:15:39.327Z,99920.56
2023-02-22T01:18:08.020Z,99932.84
2023-02-22T01:20:35.266Z,99939.06
2023-02-22T01:23:07.105Z,99944.41
2023-02-22T01:25:35.057Z,99939.00
2023-02-22T01:28:03.574Z,99944.88
2023-02-22T01:30:34.298Z,99958.25
2023-02-22T01:33:04.025Z,99966.25
2023-02-22T01:35:35.010Z,99971.53
2023-02-22T01:38:02.327Z,99967.06
2023-02-22T01:40:35.908Z,99974.91
2023-02-22T01:43:15.576Z,99970.44
2023-02-22T01:46:00.761Z,99973.09
2023-02-22T01:48:45.877Z,99979.25
2023-02-22T01:51:28.287Z,99978.41
2023-02-22T01:53:59.247Z,99980.28
2023-02-22T01:56:29.427Z,99982.94
2023-02-22T01:59:06.899Z,99981.91
2023-02-22T02:01:36.937Z,99977.72
2023-02-22T02:04:10.624Z,99965.06
2023-02-22T02:06:38.843Z,99972.38
2023-02-22T02:09:17.788Z,99971.66
2023-02-22T02:11:46.320Z,99973.31
2023-02-22T02:14:14.331Z,99977.50
2023-02-22T02:16:45.884Z,99989.84
2023-02-22T02:19:46.239Z,100010.53
2023-02-22T02:22:47.126Z,100000.44
2023-02-22T02:25:54.679Z,99991.75
2023-02-22T02:28:51.087Z,99985.53
2023-02-22T02:31:54.994Z,99992.41
2023-02-22T02:34:35.990Z,99990.63
2023-02-22T02:37:15.648Z,99990.28
2023-02-22T02:39:57.515Z,99992.03
2023-02-22T02:42:34.357Z,99992.56
2023-02-22T02:45:18.573Z,99995.28
2023-02-22T02:47:53.490Z,99999.53
2023-02-22T02:50:25.594Z,100011.00
2023-02-22T02:52:55.801Z,100018.81
2023-02-22T02:55:23.525Z,100014.28
2023-02-22T02:57:50.485Z,100019.66
2023-02-22T03:00:24.977Z,100016.88
2023-02-22T03:03:06.252Z,100017.53
2023-02-22T03:06:40.439Z,100013.88
2023-02-22T03:09:21.522Z,100008.50
2023-02-22T03:12:08.361Z,100004.28
2023-02-22T03:14:38.676Z,99996.94
2023-02-22T03:17:19.249Z,100000.63
2023-02-22T03:19:52.580Z,100017.09
2023-02-22T03:22:48.112Z,100006.63
2023-02-22T03:25:34.205Z,100014.81
2023-02-22T03:28:07.622Z,100020.19
2023-02-22T03:30:50.969Z,100020.88
2023-02-22T03:33:44.734Z,100012.41
2023-02-22T03:36:21.115Z,100019.78
2023-02-22T03:38:50.310Z,100017.13
2023-02-22T03:41:25.176Z,100009.44
2023-02-22T03:44:14.240Z,100019.41
2023-02-22T03:46:42.894Z,100012.72
2023-02-22T03:49:22.224Z,100006.72
2023-02-22T03:51:49.212Z,100011.09
2023-02-22T03:54:16.739Z,100009.03
2023-02-22T03:57:24.972Z,100006.03
2023-02-22T03:59:51.880Z,100013.94
2023-02-22T04:02:19.560Z,100024.63
2023-02-22T04:04:47.607Z,100018.44
2023-02-22T04:07:14.988Z,100020.91
2023-02-22T04:09:41.969Z,100015.38
2023-02-22T04:12:09.063Z,100036.91
2023-02-22T04:14:36.092Z,100044.75
2023-02-22T04:17:03.065Z,100041.78
2023-02-22T04:19:30.064Z,100039.38
2023-02-22T04:21:57.065Z,100023.06
2023-02-22T04:24:24.184Z,100025.44
2023-02-22T04:26:51.109Z,100020.63
2023-02-22T04:29:18.059Z,100023.22
2023-02-22T04:31:45.159Z,100035.88
2023-02-22T04:34:12.369Z,100042.09
2023-02-22T04:36:39.426Z,100045.72
2023-02-22T04:39:06.364Z,100043.25
2023-02-22T04:41:34.544Z,100046.03
2023-02-22T04:44:01.535Z,100060.53
2023-02-22T04:46:28.700Z,100061.69
2023-02-22T04:48:55.722Z,100057.19
2023-02-22T04:51:22.678Z,100047.47
2023-02-22T04:53:49.747Z,100049.97
2023-02-22T04:56:20.351Z,100059.06
2023-02-22T04:58:47.924Z,100064.56
2023-02-22T05:01:16.893Z,100059.06
2023-02-22T05:03:44.361Z,100047.09
2023-02-22T05:06:12.492Z,100048.38
2023-02-22T05:08:39.476Z,100062.22
2023-02-22T05:11:06.881Z,100050.47
2023-02-22T05:13:33.793Z,100055.63
2023-02-22T05:16:00.899Z,100074.06
2023-02-22T05:18:28.026Z,100064.25
2023-02-22T05:20:55.008Z,100059.84
2023-02-22T05:23:21.931Z,100051.19
2023-02-22T05:25:48.997Z,100052.69
2023-02-22T05:28:16.761Z,100053.91
2023-02-22T05:30:43.843Z,100053.19
2023-02-22T05:33:11.373Z,100048.25
2023-02-22T05:35:38.298Z,100057.69
2023-02-22T05:38:06.839Z,100046.75
2023-02-22T05:40:35.028Z,100054.34
2023-02-22T05:43:02.889Z,100052.94
2023-02-22T05:45:38.749Z,100068.16
2023-02-22T05:48:15.949Z,100062.31
2023-02-22T05:50:45.659Z,100064.03
2023-02-22T05:53:12.641Z,100064.94
2023-02-22T05:55:40.253Z,100063.25
2023-02-22T05:58:07.232Z,100062.50
2023-02-22T06:00:34.195Z,100089.66
2023-02-22T06:03:08.097Z,100078.44
2023-02-22T06:05:36.325Z,100073.84
2023-02-22T06:08:05.956Z,100070.50
2023-02-22T06:10:33.733Z,100066.00
2023-02-22T06:13:03.473Z,100063.06
2023-02-22T06:15:30.639Z,100063.06
2023-02-22T06:17:58.883Z,100067.56
2023-02-22T06:20:28.979Z,100070.78
2023-02-22T06:22:58.517Z,100059.88
2023-02-22T06:25:31.501Z,100063.13
2023-02-22T06:28:00.382Z,100072.13
2023-02-22T06:30:28.997Z,100075.00
2023-02-22T06:32:56.408Z,100061.59
2023-02-22T06:35:23.748Z,100058.88
2023-02-22T06:37:51.009Z,100061.50
2023-02-22T06:40:18.305Z,100060.84
2023-02-22T06:42:49.204Z,100053.47
2023-02-22T06:45:18.241Z,100057.25
2023-02-22T06:47:45.983Z,100061.22
2023-02-22T06:52:53.177Z,100054.34
2023-02-22T06:55:27.415Z,100055.47
2023-02-22T06:57:54.441Z,100067.28
2023-02-22T07:00:25.262Z,100080.28
2023-02-22T07:02:53.902Z,100072.56
2023-02-22T07:05:23.063Z,100075.19
2023-02-22T07:07:55.501Z,100071.69
2023-02-22T07:10:30.093Z,100079.44
2023-02-22T07:12:57.295Z,100079.44
2023-02-22T07:15:28.061Z,100087.50
2023-02-22T07:17:55.644Z,100084.28
2023-02-22T07:20:24.690Z,100085.22
2023-02-22T07:22:52.045Z,100091.84
2023-02-22T07:25:20.179Z,100099.88
2023-02-22T07:27:48.685Z,100101.88
2023-02-22T07:30:20.846Z,100104.72
2023-02-22T07:32:48.122Z,100107.94
2023-02-22T07:35:28.623Z,100108.22
2023-02-22T07:37:58.591Z,100111.69
2023-02-22T07:40:27.125Z,100118.88
2023-02-22T07:43:01.305Z,100123.34
2023-02-22T07:45:34.720Z,100124.28
2023-02-22T07:48:04.203Z,100134.25
2023-02-22T07:50:33.444Z,100135.94
2023-02-22T07:53:06.632Z,100145.75
2023-02-22T07:55:34.694Z,100150.41
2023-02-22T07:58:05.930Z,100160.03
2023-02-22T08:00:39.321Z,100161.44
2023-02-22T08:03:14.720Z,100176.47
2023-02-22T08:05:51.641Z,100179.50
2023-02-22T08:08:20.065Z,100181.53
2023-02-22T08:10:48.733Z,100187.06
2023-02-22T08:13:16.353Z,100191.47
2023-02-22T08:15:44.326Z,100195.63
2023-02-22T08:18:15.753Z,100208.25
2023-02-22T08:20:45.283Z,100214.03
2023-02-22T08:23:14.484Z,100214.56
2023-02-22T08:25:41.947Z,100217.78
2023-02-22T08:28:13.204Z,100227.66
2023-02-22T08:30:42.957Z,100225.91
2023-02-22T08:33:14.600Z,100228.06
2023-02-22T08:35:42.366Z,100227.38
2023-02-22T08:38:27.543Z,100233.75
2023-02-22T08:40:55.302Z,100241.09
2023-02-22T08:43:23.164Z,100237.78
2023-02-22T08:45:52.236Z,100245.16
2023-02-22T08:48:20.369Z,100253.31
2023-02-22T08:50:47.435Z,100257.75
2023-02-22T08:53:16.515Z,100274.00
2023-02-22T08:55:44.198Z,100286.88
2023-02-22T08:58:12.200Z,100280.78
2023-02-22T09:00:41.157Z,100283.63
2023-02-22T09:03:13.427Z,100294.38
2023-02-22T09:05:41.825Z,100297.19
2023-02-22T09:08:08.960Z,100300.84
2023-02-22T09:10:36.397Z,100290.38
2023-02-22T09:13:05.844Z,100290.72
2023-02-22T09:15:36.002Z,100283.09
2023-02-22T09:18:04.393Z,100281.47
2023-02-22T09:20:31.663Z,100288.00
2023-02-22T09:22:59.621Z,100279.28
2023-02-22T09:25:27.330Z,100274.44
2023-02-22T09:27:55.454Z,100260.41
2023-02-22T09:30:32.846Z,100249.03
2023-02-22T09:33:07.126Z,100241.38
2023-02-22T09:35:36.546Z,100248.81
2023-02-22T09:38:08.079Z,100239.41
2023-02-22T09:40:45.080Z,100238.00
2023-02-22T09:43:21.069Z,100226.38
2023-02-22T09:46:22.490Z,100222.31
2023-02-22T09:49:06.680Z,100224.53
2023-02-22T09:51:44.968Z,100212.41
2023-02-22T09:54:43.453Z,100191.97
2023-02-22T09:57:21.708Z,100173.47
2023-02-22T10:00:13.861Z,100165.78
2023-02-22T10:03:33.154Z,100160.16
2023-02-22T10:06:06.727Z,100164.81
2023-02-22T10:08:34.642Z,100144.47
2023-02-22T10:11:19.964Z,100150.19
2023-02-22T10:14:24.405Z,100119.06
2023-02-22T10:17:06.856Z,100123.81
2023-02-22T10:19:54.704Z,100118.84
2023-02-22T10:22:59.233Z,100101.22
2023-02-22T10:25:29.003Z,100096.97
2023-02-22T10:28:03.863Z,100076.75
2023-02-22T10:30:39.902Z,100073.44
2023-02-22T10:33:21.536Z,100075.34
2023-02-22T10:35:51.666Z,100053.25
2023-02-22T10:38:24.449Z,100027.69
2023-02-22T10:41:20.097Z,100069.53
2023-02-22T10:43:47.265Z,100027.22
2023-02-22T10:46:18.205Z,100020.25
2023-02-22T10:48:49.991Z,100013.41
2023-02-22T10:51:17.384Z,99995.81
2023-02-22T10:53:45.826Z,99993.25
2023-02-22T10:56:25.767Z,99993.38
2023-02-22T10:59:04.310Z,99953.78
2023-02-22T11:01:34.607Z,99970.63
2023-02-22T11:04:15.834Z,99955.81
2023-02-22T11:07:00.781Z,99929.44
2023-02-22T11:09:29.134Z,99898.59
2023-02-22T11:12:19.693Z,99877.41
2023-02-22T11:14:46.857Z,99897.66
2023-02-22T11:17:28.963Z,99858.84
2023-02-22T11:19:56.710Z,99877.28
2023-02-22T11:22:41.463Z,99829.66
2023-02-22T11:25:09.457Z,99794.44
2023-02-22T11:27:47.118Z,99813.72
2023-02-22T11:30:29.695Z,99794.22
2023-02-22T11:33:11.179Z,99791.56
2023-02-22T11:35:52.909Z,99793.19
2023-02-22T11:38:32.764Z,99769.44
2023-02-22T11:41:23.110Z,99773.75
2023-02-22T11:43:52.071Z,99778.91
2023-02-22T11:46:23.211Z,99801.59
2023-02-22T11:49:09.752Z,99747.88
2023-02-22T11:51:57.977Z,99702.94
2023-02-22T11:54:46.377Z,99731.88
2023-02-22T11:57:50.428Z,99712.81
2023-02-22T12:00:48.576Z,99688.16
2023-02-22T12:03:51.650Z,99674.59
2023-02-22T12:06:54.535Z,99654.69
2023-02-22T12:09:36.933Z,99660.63
2023-02-22T12:12:27.080Z,99580.72
2023-02-22T12:15:09.030Z,99604.53
2023-02-22T12:18:29.039Z,99597.22
2023-02-22T12:21:01.758Z,99563.50
2023-02-22T12:23:46.405Z,99515.00
2023-02-22T12:26:53.801Z,99572.75
2023-02-22T12:29:47.510Z,99556.06
2023-02-22T12:32:48.979Z,99509.06
2023-02-22T12:35:54.089Z,99485.91
2023-02-22T12:38:46.659Z,99495.97
2023-02-22T12:41:29.978Z,99433.22
2023-02-22T12:44:14.484Z,99440.16
2023-02-22T12:46:53.689Z,99431.47
2023-02-22T12:49:38.951Z,99396.28
2023-02-22T12:52:25.979Z,99353.50
2023-02-22T12:55:06.589Z,99345.06
2023-02-22T12:58:16.308Z,99307.44
2023-02-22T13:00:57.336Z,99361.38
2023-02-22T13:03:39.053Z,99336.16
2023-02-22T13:06:42.616Z,99323.50
2023-02-22T13:09:33.412Z,99326.75
2023-02-22T13:12:21.156Z,99318.00
2023-02-22T13:15:14.467Z,99260.84
2023-02-22T13:18:02.808Z,99261.72
2023-02-22T13:20:42.281Z,99162.16
2023-02-22T13:23:31.529Z,99136.81
2023-02-22T13:26:11.406Z,99148.81
2023-02-22T13:29:05.110Z,99230.91
2023-02-22T13:32:10.217Z,99021.44
2023-02-22T13:34:56.907Z,98969.78
2023-02-22T13:38:19.286Z,98854.97
2023-02-22T13:41:31.809Z,98854.03
2023-02-22T13:44:33.277Z,98855.81
2023-02-22T13:47:44.131Z,98885.81
2023-02-22T13:50:29.751Z,98867.94
2023-02-22T13:52:59.812Z,98817.44
2023-02-22T13:55:34.702Z,98827.44
2023-02-22T13:58:11.983Z,98751.63
2023-02-22T14:00:42.551Z,98689.50
2023-02-22T14:03:16.684Z,98669.09
2023-02-22T14:05:46.535Z,98673.31
2023-02-22T14:08:19.653Z,98702.78
2023-02-22T14:10:56.471Z,98757.91
2023-02-22T14:13:55.710Z,98684.09
2023-02-22T14:16:34.355Z,98680.69
2023-02-22T14:19:09.390Z,98589.03
2023-02-22T14:21:36.564Z,98520.53
2023-02-22T14:24:12.614Z,98585.78
2023-02-22T14:26:41.323Z,98539.16
2023-02-22T14:29:08.280Z,98501.72
2023-02-22T14:31:43.460Z,98549.44
2023-02-22T14:34:13.024Z,98544.28
2023-02-22T14:37:08.562Z,98488.31
2023-02-22T14:39:46.147Z,98504.03
2023-02-22T14:42:24.452Z,98549.25
2023-02-22T14:45:05.031Z,98541.19
2023-02-22T14:48:04.027Z,98515.31
2023-02-22T14:50:52.872Z,98436.88
2023-02-22T14:53:44.451Z,98471.97
2023-02-22T14:56:25.565Z,98492.66
2023-02-22T14:59:08.532Z,98502.84
2023-02-22T15:01:53.189Z,98457.47
2023-02-22T15:04:31.035Z,98489.94
2023-02-22T15:07:01.231Z,98472.72
2023-02-22T15:09:34.703Z,98471.91
2023-02-22T15:12:05.456Z,98450.91
2023-02-22T15:14:39.023Z,98432.41
2023-02-22T15:17:18.242Z,98407.22
2023-02-22T15:19:48.874Z,98423.94
2023-02-22T15:22:26.660Z,98384.81
2023-02-22T15:25:03.910Z,98413.47
2023-02-22T15:27:37.238Z,98425.06
2023-02-22T15:30:09.921Z,98403.41
2023-02-22T15:32:50.144Z,98427.31
2023-02-22T15:35:26.502Z,98404.38
2023-02-22T15:38:18.271Z,98431.81
2023-02-22T15:40:45.708Z,98462.16
2023-02-22T15:43:20.303Z,98470.31
2023-02-22T15:45:47.656Z,98469.44
2023-02-22T15:48:15.981Z,98492.63
2023-02-22T15:51:13.977Z,98491.97
2023-02-22T15:53:51.626Z,98476.44
2023-02-22T15:56:31.224Z,98473.81
2023-02-22T15:59:12.796Z,98492.63
2023-02-22T16:01:46.562Z,98523.81
2023-02-22T16:04:27.281Z,98528.25
2023-02-22T16:07:16.968Z,98540.09
2023-02-22T16:09:50.456Z,98541.28
2023-02-22T16:12:28.178Z,98551.25
2023-02-22T16:15:00.751Z,98557.69
2023-02-22T16:17:37.592Z,98572.00
2023-02-22T16:20:14.454Z,98593.53
2023-02-22T16:22:49.446Z,98610.41
2023-02-22T16:25:19.533Z,98618.44
2023-02-22T16:27:52.737Z,98631.91
2023-02-22T16:30:25.064Z,98642.47
2023-02-22T16:32:55.619Z,98649.59
2023-02-22T16:35:29.090Z,98657.91
2023-02-22T16:38:02.917Z,98670.50
2023-02-22T16:40:47.080Z,98685.69
2023-02-22T16:46:11.911Z,98702.31
2023-02-22T16:48:46.070Z,98727.22
2023-02-22T16:51:27.239Z,98747.91
2023-02-22T16:53:56.014Z,98777.16
2023-02-22T16:56:31.254Z,98801.97
2023-02-22T16:59:06.773Z,98816.16
2023-02-22T17:01:35.336Z,98827.03
2023-02-22T17:04:02.849Z,98849.09
2023-02-22T17:06:31.393Z,98871.22
2023-02-22T17:09:04.031Z,98881.16
2023-02-22T17:11:31.079Z,98903.34
2023-02-22T17:13:58.292Z,98913.13
2023-02-22T17:16:25.292Z,98927.22
2023-02-22T17:18:52.666Z,98946.59
2023-02-22T17:21:19.717Z,98956.31
2023-02-22T17:23:47.525Z,98981.78
2023-02-22T17:26:17.077Z,99001.16
2023-02-22T17:28:44.973Z,99024.31
2023-02-22T17:31:22.033Z,99051.63
2023-02-22T17:33:51.477Z,99079.44
2023-02-22T17:36:19.389Z,99083.81
2023-02-22T17:38:46.419Z,99089.09
2023-02-22T17:41:13.471Z,99105.88
2023-02-22T17:43:40.456Z,99108.28
2023-02-22T17:46:08.668Z,99109.28
2023-02-22T17:48:36.226Z,99115.41
2023-02-22T17:51:10.778Z,99110.22
2023-02-22T17:53:39.060Z,99118.31
2023-02-22T17:56:20.827Z,99127.09
2023-02-22T17:58:55.427Z,99122.66
2023-02-22T18:01:41.020Z,99131.66
2023-02-22T18:04:17.006Z,99137.84
2023-02-22T18:06:44.625Z,99137.81
2023-02-22T18:09:12.121Z,99139.75
2023-02-22T18:11:39.727Z,99151.22
2023-02-22T18:14:10.179Z,99159.31
2023-02-22T18:16:39.092Z,99173.38
2023-02-22T18:19:06.646Z,99174.28
2023-02-22T18:21:33.701Z,99181.31
2023-02-22T18:24:00.796Z,99178.88
2023-02-22T18:26:28.083Z,99190.38
2023-02-22T18:28:57.088Z,99195.59
2023-02-22T18:31:24.396Z,99199.09
2023-02-22T18:33:53.157Z,99207.94
2023-02-22T18:36:23.281Z,99220.16
2023-02-22T18:38:54.230Z,99223.78
2023-02-22T18:41:27.061Z,99223.78
2023-02-22T18:44:00.049Z,99227.38
2023-02-22T18:46:27.790Z,99242.38
2023-02-22T18:48:56.722Z,99243.34
2023-02-22T18:51:24.758Z,99241.88
2023-02-22T18:53:56.973Z,99243.81
2023-02-22T18:56:29.506Z,99247.50
2023-02-22T18:59:02.465Z,99265.94
2023-02-22T19:01:31.446Z,99259.00
2023-02-22T19:04:00.379Z,99272.25
2023-02-22T19:06:27.464Z,99287.22
2023-02-22T19:08:54.596Z,99287.28
2023-02-22T19:11:24.475Z,99300.50
2023-02-22T19:13:56.298Z,99299.66
2023-02-22T19:16:26.346Z,99309.38
2023-02-22T19:18:57.498Z,99312.88
2023-02-22T19:21:28.073Z,99318.25
2023-02-22T19:23:56.026Z,99317.31
2023-02-22T19:26:28.967Z,99330.44
2023-02-22T19:28:58.904Z,99334.03
2023-02-22T19:31:31.077Z,99339.38
2023-02-22T19:34:06.080Z,99342.94
2023-02-22T19:36:33.211Z,99350.78
2023-02-22T19:39:03.080Z,99355.22
2023-02-22T19:41:31.228Z,99367.56
2023-02-22T19:43:59.095Z,99369.34
2023-02-22T19:46:26.291Z,99372.94
2023-02-22T19:49:16.286Z,99377.41
2023-02-22T19:51:53.731Z,99389.72
2023-02-22T19:54:22.243Z,99403.81
2023-02-22T19:56:51.170Z,99414.38
2023-02-22T19:59:23.724Z,99398.63
2023-02-22T20:01:54.889Z,99425.00
2023-02-22T20:04:23.115Z,99432.94
2023-02-22T20:06:54.929Z,99444.34
2023-02-22T20:09:47.341Z,99454.91
2023-02-22T20:12:14.704Z,99461.91
2023-02-22T20:14:43.429Z,99472.47
2023-02-22T20:17:10.549Z,99484.78
2023-02-22T20:19:41.160Z,99494.44
2023-02-22T20:22:08.571Z,99509.38
2023-02-22T20:24:35.611Z,99530.53
2023-02-22T20:27:02.663Z,99534.03
2023-02-22T20:29:29.957Z,99535.78
2023-02-22T20:31:59.960Z,99549.84
2023-02-22T20:34:31.448Z,99555.13
2023-02-22T20:36:59.154Z,99552.50
2023-02-22T20:39:26.430Z,99553.31
2023-02-22T20:41:54.650Z,99571.81
2023-02-22T20:44:22.750Z,99576.19
2023-02-22T20:46:49.819Z,99577.97
2023-02-22T20:49:20.214Z,99597.28
2023-02-22T20:51:49.973Z,99598.16
2023-02-22T20:54:17.864Z,99606.97
2023-02-22T20:56:46.741Z,99612.22
2023-02-22T20:59:17.322Z,99617.50
2023-02-22T21:01:44.645Z,99632.44
2023-02-22T21:04:12.153Z,99646.50
2023-02-22T21:06:40.454Z,99676.50
2023-02-22T21:09:15.017Z,99675.59
2023-02-22T21:11:42.954Z,99678.25
2023-02-22T21:14:16.789Z,99695.00
2023-02-22T21:16:46.698Z,99697.66
2023-02-22T21:19:25.678Z,99703.81
2023-02-22T21:21:58.722Z,99717.91
2023-02-22T21:24:28.277Z,99724.97
2023-02-22T21:26:58.782Z,99723.19
2023-02-22T21:29:26.718Z,99724.97
2023-02-22T21:31:54.374Z,99732.00
2023-02-22T21:34:22.492Z,99746.09
2023-02-22T21:36:50.637Z,99751.38
2023-02-22T21:39:20.748Z,99761.94
2023-02-22T21:41:51.212Z,99768.13
2023-02-22T21:44:19.054Z,99761.06
2023-02-22T21:46:49.979Z,99769.84
2023-02-22T21:49:17.795Z,99769.84
2023-02-22T21:51:45.041Z,99765.41
2023-02-22T21:54:13.079Z,99768.94
2023-02-22T21:56:42.954Z,99776.84
2023-02-22T21:59:23.562Z,99782.13
2023-02-22T22:01:56.237Z,99806.84
2023-02-22T22:04:30.051Z,99817.44
2023-02-22T22:07:00.106Z,99821.84
2023-02-22T22:09:37.800Z,99822.72
2023-02-22T22:12:05.637Z,99823.59
2023-02-22T22:14:34.860Z,99831.50
2023-02-22T22:17:05.524Z,99836.78
2023-02-22T22:19:39.379Z,99842.97
2023-02-22T22:22:07.905Z,99850.00
2023-02-22T22:24:35.149Z,99842.94
2023-02-22T22:27:06.627Z,99845.59
2023-02-22T22:29:34.558Z,99842.06
2023-02-22T22:32:02.886Z,99839.41
2023-02-22T22:34:30.292Z,99848.19
2023-02-22T22:36:58.661Z,99846.44
2023-02-22T22:39:26.892Z,99848.16
2023-02-22T22:41:54.120Z,99854.34
2023-02-22T22:44:24.314Z,99862.22
2023-02-22T22:46:54.930Z,99853.41
2023-02-22T22:49:24.090Z,99846.34
2023-02-22T22:51:51.332Z,99848.97
2023-02-22T22:54:18.477Z,99844.53
2023-02-22T22:56:45.513Z,99841.91
2023-02-22T22:59:13.537Z,99845.41
2023-02-22T23:01:45.017Z,99844.53
2023-02-22T23:04:18.890Z,99847.16
2023-02-22T23:06:51.090Z,99846.22
2023-02-22T23:09:30.456Z,99836.53
2023-02-22T23:12:24.212Z,99841.81
2023-02-22T23:14:52.176Z,99829.50
2023-02-22T23:17:31.441Z,99844.44
2023-02-22T23:19:58.625Z,99840.03
2023-02-22T23:22:25.623Z,99850.59
2023-02-22T23:24:52.694Z,99858.50
2023-02-22T23:27:19.666Z,99851.44
2023-02-22T23:29:47.128Z,99853.06
2023-02-22T23:32:14.553Z,99854.78
2023-02-22T23:34:41.927Z,99850.41
2023-02-22T23:37:10.652Z,99850.44
2023-02-22T23:39:38.110Z,99854.00
2023-02-22T23:42:05.255Z,99843.47
2023-02-22T23:44:32.616Z,99842.63
2023-02-22T23:46:59.870Z,99840.00
2023-02-22T23:49:38.008Z,99825.06
2023-02-22T23:52:08.282Z,99828.59
2023-02-22T23:54:40.389Z,99834.78
2023-02-22T23:57:08.974Z,99825.97
2023-02-22T23:59:37.375Z,99822.44
